sensor_id;sensor_type;location;lat;lon;timestamp;temperature;humidity
6244;DHT22;3155;49.940;8.450;2023-01-15T00:00:05;9.10;1.00
6244;DHT22;3155;49.940;8.450;2023-01-15T00:02:31;9.10;1.00
6244;DHT22;3155;49.940;8.450;2023-01-15T00:04:58;9.10;1.00
6244;DHT22;3155;49.940;8.450;2023-01-15T00:07:29;9.10;1.00
6244;DHT22;3155;49.940;8.450;2023-01-15T00:09:55;9.10;1.00
6244;DHT22;3155;49.940;8.450;2023-01-15T00:12:22;9.10;1.00
6244;DHT22;3155;49.940;8.450;2023-01-15T00:14:49;9.10;1.00
6244;DHT22;3155;49.940;8.450;2023-01-15T00:17:19;9.10;1.00
6244;DHT22;3155;49.940;8.450;2023-01-15T00:19:45;9.10;1.00
6244;DHT22;3155;49.940;8.450;2023-01-15T00:22:12;9.10;1.00
6244;DHT22;3155;49.940;8.450;2023-01-15T00:24:39;9.20;1.00
6244;DHT22;3155;49.940;8.450;2023-01-15T00:27:26;9.20;1.00
6244;DHT22;3155;49.940;8.450;2023-01-15T00:30:08;9.20;99.90
6244;DHT22;3155;49.940;8.450;2023-01-15T00:32:39;9.20;99.90
6244;DHT22;3155;49.940;8.450;2023-01-15T00:35:10;9.20;99.90
6244;DHT22;3155;49.940;8.450;2023-01-15T00:37:37;9.20;99.90
6244;DHT22;3155;49.940;8.450;2023-01-15T00:40:04;9.20;99.90
6244;DHT22;3155;49.940;8.450;2023-01-15T00:42:31;9.30;99.90
6244;DHT22;3155;49.940;8.450;2023-01-15T00:44:58;9.30;99.90
6244;DHT22;3155;49.940;8.450;2023-01-15T00:47:25;9.30;99.90
6244;DHT22;3155;49.940;8.450;2023-01-15T00:49:52;9.30;99.90
6244;DHT22;3155;49.940;8.450;2023-01-15T00:52:18;9.30;99.90
6244;DHT22;3155;49.940;8.450;2023-01-15T00:54:45;9.20;99.90
6244;DHT22;3155;49.940;8.450;2023-01-15T00:57:13;9.20;99.90
6244;DHT22;3155;49.940;8.450;2023-01-15T00:59:40;9.20;99.90
6244;DHT22;3155;49.940;8.450;2023-01-15T01:02:07;9.10;1.00
6244;DHT22;3155;49.940;8.450;2023-01-15T01:04:34;9.00;1.00
6244;DHT22;3155;49.940;8.450;2023-01-15T01:07:01;9.00;1.00
6244;DHT22;3155;49.940;8.450;2023-01-15T01:09:27;9.00;1.00
6244;DHT22;3155;49.940;8.450;2023-01-15T01:11:54;9.00;1.00
6244;DHT22;3155;49.940;8.450;2023-01-15T01:14:21;9.00;1.00
6244;DHT22;3155;49.940;8.450;2023-01-15T01:16:51;8.90;1.00
6244;DHT22;3155;49.940;8.450;2023-01-15T01:19:20;8.90;1.00
6244;DHT22;3155;49.940;8.450;2023-01-15T01:21:48;8.90;11.20
6244;DHT22;3155;49.940;8.450;2023-01-15T01:24:18;8.90;36.20
6244;DHT22;3155;49.940;8.450;2023-01-15T01:26:49;8.90;64.30
6244;DHT22;3155;49.940;8.450;2023-01-15T01:29:21;8.90;95.20
6244;DHT22;3155;49.940;8.450;2023-01-15T01:31:48;8.90;99.90
6244;DHT22;3155;49.940;8.450;2023-01-15T01:34:19;8.90;99.90
6244;DHT22;3155;49.940;8.450;2023-01-15T01:36:46;8.90;99.90
6244;DHT22;3155;49.940;8.450;2023-01-15T01:39:18;8.90;99.90
6244;DHT22;3155;49.940;8.450;2023-01-15T01:41:45;8.90;99.90
6244;DHT22;3155;49.940;8.450;2023-01-15T01:47:03;9.00;99.90
6244;DHT22;3155;49.940;8.450;2023-01-15T01:49:34;9.00;99.90
6244;DHT22;3155;49.940;8.450;2023-01-15T01:52:05;9.00;99.90
6244;DHT22;3155;49.940;8.450;2023-01-15T01:54:35;8.90;99.90
6244;DHT22;3155;49.940;8.450;2023-01-15T01:57:07;8.90;99.90
6244;DHT22;3155;49.940;8.450;2023-01-15T01:59:35;8.90;99.90
6244;DHT22;3155;49.940;8.450;2023-01-15T02:02:03;8.80;99.90
6244;DHT22;3155;49.940;8.450;2023-01-15T02:04:31;8.80;99.90
6244;DHT22;3155;49.940;8.450;2023-01-15T02:07:02;8.70;99.90
6244;DHT22;3155;49.940;8.450;2023-01-15T02:09:29;8.70;99.90
6244;DHT22;3155;49.940;8.450;2023-01-15T02:12:05;8.60;99.90
6244;DHT22;3155;49.940;8.450;2023-01-15T02:14:35;8.70;99.90
6244;DHT22;3155;49.940;8.450;2023-01-15T02:17:06;8.60;99.90
6244;DHT22;3155;49.940;8.450;2023-01-15T02:19:57;8.60;99.90
6244;DHT22;3155;49.940;8.450;2023-01-15T02:22:46;8.50;99.90
6244;DHT22;3155;49.940;8.450;2023-01-15T02:28:36;8.50;99.90
6244;DHT22;3155;49.940;8.450;2023-01-15T02:31:15;8.40;99.90
6244;DHT22;3155;49.940;8.450;2023-01-15T02:33:50;8.40;99.90
6244;DHT22;3155;49.940;8.450;2023-01-15T02:36:21;8.30;99.90
6244;DHT22;3155;49.940;8.450;2023-01-15T02:38:51;8.20;99.90
6244;DHT22;3155;49.940;8.450;2023-01-15T02:41:27;8.10;99.90
6244;DHT22;3155;49.940;8.450;2023-01-15T02:43:56;8.00;99.90
6244;DHT22;3155;49.940;8.450;2023-01-15T02:46:27;7.90;94.10
6244;DHT22;3155;49.940;8.450;2023-01-15T02:48:56;7.80;37.90
6244;DHT22;3155;49.940;8.450;2023-01-15T02:51:29;7.80;20.90
6244;DHT22;3155;49.940;8.450;2023-01-15T02:54:00;7.70;19.10
6244;DHT22;3155;49.940;8.450;2023-01-15T02:56:31;7.60;21.50
6244;DHT22;3155;49.940;8.450;2023-01-15T02:59:04;7.60;22.80
6244;DHT22;3155;49.940;8.450;2023-01-15T03:01:41;7.60;23.10
6244;DHT22;3155;49.940;8.450;2023-01-15T03:04:09;7.50;21.70
6244;DHT22;3155;49.940;8.450;2023-01-15T03:07:26;7.40;23.20
6244;DHT22;3155;49.940;8.450;2023-01-15T03:09:53;7.40;20.50
6244;DHT22;3155;49.940;8.450;2023-01-15T03:12:31;7.30;12.60
6244;DHT22;3155;49.940;8.450;2023-01-15T03:15:08;7.20;1.00
6244;DHT22;3155;49.940;8.450;2023-01-15T03:18:03;7.10;1.00
6244;DHT22;3155;49.940;8.450;2023-01-15T03:20:32;7.00;1.00
6244;DHT22;3155;49.940;8.450;2023-01-15T03:23:07;6.90;1.00
6244;DHT22;3155;49.940;8.450;2023-01-15T03:25:40;6.90;1.00
6244;DHT22;3155;49.940;8.450;2023-01-15T03:28:09;6.80;1.00
6244;DHT22;3155;49.940;8.450;2023-01-15T03:30:37;6.80;1.00
6244;DHT22;3155;49.940;8.450;2023-01-15T03:33:04;6.70;1.00
6244;DHT22;3155;49.940;8.450;2023-01-15T03:35:56;6.70;1.00
6244;DHT22;3155;49.940;8.450;2023-01-15T03:38:32;6.60;1.00
6244;DHT22;3155;49.940;8.450;2023-01-15T03:41:14;6.60;1.00
6244;DHT22;3155;49.940;8.450;2023-01-15T03:44:45;6.60;1.00
6244;DHT22;3155;49.940;8.450;2023-01-15T03:47:19;6.60;1.00
6244;DHT22;3155;49.940;8.450;2023-01-15T03:55:52;6.50;1.00
6244;DHT22;3155;49.940;8.450;2023-01-15T03:58:28;6.40;1.00
6244;DHT22;3155;49.940;8.450;2023-01-15T04:00:57;6.40;1.00
6244;DHT22;3155;49.940;8.450;2023-01-15T04:03:27;6.40;1.00
6244;DHT22;3155;49.940;8.450;2023-01-15T04:05:56;6.40;1.00
6244;DHT22;3155;49.940;8.450;2023-01-15T04:08:26;6.40;1.00
6244;DHT22;3155;49.940;8.450;2023-01-15T04:10:57;6.40;5.70
6244;DHT22;3155;49.940;8.450;2023-01-15T04:13:30;6.30;12.40
6244;DHT22;3155;49.940;8.450;2023-01-15T04:15:59;6.30;19.20
6244;DHT22;3155;49.940;8.450;2023-01-15T04:18:27;6.40;25.60
6244;DHT22;3155;49.940;8.450;2023-01-15T04:20:56;6.40;30.90
6244;DHT22;3155;49.940;8.450;2023-01-15T04:23:23;6.40;29.70
6244;DHT22;3155;49.940;8.450;2023-01-15T04:25:50;6.40;28.10
6244;DHT22;3155;49.940;8.450;2023-01-15T04:28:16;6.40;20.20
6244;DHT22;3155;49.940;8.450;2023-01-15T04:30:43;6.40;19.80
6244;DHT22;3155;49.940;8.450;2023-01-15T04:33:12;6.40;19.30
6244;DHT22;3155;49.940;8.450;2023-01-15T04:35:39;6.30;1.00
6244;DHT22;3155;49.940;8.450;2023-01-15T04:38:08;6.10;1.00
6244;DHT22;3155;49.940;8.450;2023-01-15T04:40:35;5.80;99.90
6244;DHT22;3155;49.940;8.450;2023-01-15T04:43:20;5.60;99.90
6244;DHT22;3155;49.940;8.450;2023-01-15T04:46:07;5.50;99.90
6244;DHT22;3155;49.940;8.450;2023-01-15T04:48:34;5.40;1.00
6244;DHT22;3155;49.940;8.450;2023-01-15T04:51:04;5.30;1.00
6244;DHT22;3155;49.940;8.450;2023-01-15T04:53:32;5.30;1.00
6244;DHT22;3155;49.940;8.450;2023-01-15T04:56:02;5.30;1.00
6244;DHT22;3155;49.940;8.450;2023-01-15T04:58:29;5.30;1.00
6244;DHT22;3155;49.940;8.450;2023-01-15T05:00:58;5.20;1.00
6244;DHT22;3155;49.940;8.450;2023-01-15T05:03:27;5.30;1.00
6244;DHT22;3155;49.940;8.450;2023-01-15T05:05:54;5.20;1.00
6244;DHT22;3155;49.940;8.450;2023-01-15T05:08:21;5.20;1.00
6244;DHT22;3155;49.940;8.450;2023-01-15T05:10:47;5.10;1.00
6244;DHT22;3155;49.940;8.450;2023-01-15T05:13:14;5.10;1.00
6244;DHT22;3155;49.940;8.450;2023-01-15T05:15:40;5.10;1.00
6244;DHT22;3155;49.940;8.450;2023-01-15T05:18:08;5.10;1.00
6244;DHT22;3155;49.940;8.450;2023-01-15T05:20:37;5.20;1.00
6244;DHT22;3155;49.940;8.450;2023-01-15T05:23:04;5.10;1.00
6244;DHT22;3155;49.940;8.450;2023-01-15T05:25:31;5.10;1.00
6244;DHT22;3155;49.940;8.450;2023-01-15T05:27:57;5.10;1.00
6244;DHT22;3155;49.940;8.450;2023-01-15T05:30:24;5.00;1.00
6244;DHT22;3155;49.940;8.450;2023-01-15T05:32:53;5.00;1.00
6244;DHT22;3155;49.940;8.450;2023-01-15T05:35:20;5.00;1.00
6244;DHT22;3155;49.940;8.450;2023-01-15T05:37:47;5.00;1.00
6244;DHT22;3155;49.940;8.450;2023-01-15T05:40:13;4.80;1.00
6244;DHT22;3155;49.940;8.450;2023-01-15T05:42:40;4.80;1.00
6244;DHT22;3155;49.940;8.450;2023-01-15T05:45:07;4.70;1.00
6244;DHT22;3155;49.940;8.450;2023-01-15T05:47:34;4.70;1.00
6244;DHT22;3155;49.940;8.450;2023-01-15T05:50:01;4.70;1.00
6244;DHT22;3155;49.940;8.450;2023-01-15T05:52:28;4.70;1.00
6244;DHT22;3155;49.940;8.450;2023-01-15T05:54:54;4.60;1.00
6244;DHT22;3155;49.940;8.450;2023-01-15T05:57:21;4.60;1.00
6244;DHT22;3155;49.940;8.450;2023-01-15T05:59:48;4.60;1.00
6244;DHT22;3155;49.940;8.450;2023-01-15T06:02:15;4.60;1.00
6244;DHT22;3155;49.940;8.450;2023-01-15T06:04:42;4.70;1.00
6244;DHT22;3155;49.940;8.450;2023-01-15T06:07:09;4.70;1.00
6244;DHT22;3155;49.940;8.450;2023-01-15T06:09:35;4.70;1.00
6244;DHT22;3155;49.940;8.450;2023-01-15T06:12:02;4.70;1.00
6244;DHT22;3155;49.940;8.450;2023-01-15T06:14:29;4.60;1.00
6244;DHT22;3155;49.940;8.450;2023-01-15T06:16:56;4.60;1.00
6244;DHT22;3155;49.940;8.450;2023-01-15T06:19:23;4.60;1.00
6244;DHT22;3155;49.940;8.450;2023-01-15T06:21:52;4.60;1.00
6244;DHT22;3155;49.940;8.450;2023-01-15T06:24:19;4.60;1.00
6244;DHT22;3155;49.940;8.450;2023-01-15T06:26:46;4.60;5.40
6244;DHT22;3155;49.940;8.450;2023-01-15T06:29:13;4.50;9.90
6244;DHT22;3155;49.940;8.450;2023-01-15T06:31:43;4.60;7.10
6244;DHT22;3155;49.940;8.450;2023-01-15T06:34:10;4.60;4.60
6244;DHT22;3155;49.940;8.450;2023-01-15T06:36:37;4.50;6.10
6244;DHT22;3155;49.940;8.450;2023-01-15T06:39:03;4.50;13.30
6244;DHT22;3155;49.940;8.450;2023-01-15T06:41:31;4.50;21.40
6244;DHT22;3155;49.940;8.450;2023-01-15T06:44:17;4.50;27.40
6244;DHT22;3155;49.940;8.450;2023-01-15T06:47:15;4.50;29.80
6244;DHT22;3155;49.940;8.450;2023-01-15T06:49:47;4.50;27.50
6244;DHT22;3155;49.940;8.450;2023-01-15T06:52:14;4.50;24.90
6244;DHT22;3155;49.940;8.450;2023-01-15T06:54:41;4.50;28.70
6244;DHT22;3155;49.940;8.450;2023-01-15T06:57:07;4.40;31.80
6244;DHT22;3155;49.940;8.450;2023-01-15T06:59:34;4.40;39.00
6244;DHT22;3155;49.940;8.450;2023-01-15T07:02:01;4.40;39.80
6244;DHT22;3155;49.940;8.450;2023-01-15T07:04:27;4.30;46.30
6244;DHT22;3155;49.940;8.450;2023-01-15T07:06:55;4.30;52.10
6244;DHT22;3155;49.940;8.450;2023-01-15T07:09:24;4.30;57.40
6244;DHT22;3155;49.940;8.450;2023-01-15T07:11:51;4.30;57.50
6244;DHT22;3155;49.940;8.450;2023-01-15T07:14:23;4.30;64.40
6244;DHT22;3155;49.940;8.450;2023-01-15T07:16:54;4.30;72.90
6244;DHT22;3155;49.940;8.450;2023-01-15T07:19:21;4.30;77.80
6244;DHT22;3155;49.940;8.450;2023-01-15T07:21:47;4.30;82.90
6244;DHT22;3155;49.940;8.450;2023-01-15T07:24:15;4.30;86.70
6244;DHT22;3155;49.940;8.450;2023-01-15T07:26:42;4.30;90.30
6244;DHT22;3155;49.940;8.450;2023-01-15T07:29:09;4.30;92.00
6244;DHT22;3155;49.940;8.450;2023-01-15T07:31:37;4.30;94.20
6244;DHT22;3155;49.940;8.450;2023-01-15T07:34:04;4.40;95.60
6244;DHT22;3155;49.940;8.450;2023-01-15T07:36:34;4.40;96.90
6244;DHT22;3155;49.940;8.450;2023-01-15T07:39:06;4.40;98.00
6244;DHT22;3155;49.940;8.450;2023-01-15T07:41:33;4.40;98.90
6244;DHT22;3155;49.940;8.450;2023-01-15T07:44:19;4.40;99.90
6244;DHT22;3155;49.940;8.450;2023-01-15T07:47:24;4.40;99.90
6244;DHT22;3155;49.940;8.450;2023-01-15T07:50:16;4.40;99.90
6244;DHT22;3155;49.940;8.450;2023-01-15T07:52:43;4.50;99.90
6244;DHT22;3155;49.940;8.450;2023-01-15T07:55:11;4.50;99.90
6244;DHT22;3155;49.940;8.450;2023-01-15T07:57:41;4.50;99.90
6244;DHT22;3155;49.940;8.450;2023-01-15T08:00:12;4.50;99.90
6244;DHT22;3155;49.940;8.450;2023-01-15T08:02:40;4.50;99.90
6244;DHT22;3155;49.940;8.450;2023-01-15T08:05:08;4.50;99.90
6244;DHT22;3155;49.940;8.450;2023-01-15T08:07:42;4.50;99.90
6244;DHT22;3155;49.940;8.450;2023-01-15T08:10:12;4.40;92.40
6244;DHT22;3155;49.940;8.450;2023-01-15T08:12:39;4.40;83.30
6244;DHT22;3155;49.940;8.450;2023-01-15T08:15:25;4.30;73.20
6244;DHT22;3155;49.940;8.450;2023-01-15T08:17:52;4.30;69.20
6244;DHT22;3155;49.940;8.450;2023-01-15T08:20:24;4.30;68.00
6244;DHT22;3155;49.940;8.450;2023-01-15T08:22:51;4.40;64.50
6244;DHT22;3155;49.940;8.450;2023-01-15T08:25:22;4.40;63.00
6244;DHT22;3155;49.940;8.450;2023-01-15T08:27:50;4.40;63.60
6244;DHT22;3155;49.940;8.450;2023-01-15T08:30:20;4.40;63.00
6244;DHT22;3155;49.940;8.450;2023-01-15T08:32:47;4.40;62.10
6244;DHT22;3155;49.940;8.450;2023-01-15T08:35:14;4.40;60.00
6244;DHT22;3155;49.940;8.450;2023-01-15T08:37:43;4.50;49.10
6244;DHT22;3155;49.940;8.450;2023-01-15T08:40:11;4.40;31.80
6244;DHT22;3155;49.940;8.450;2023-01-15T08:42:38;4.40;19.40
6244;DHT22;3155;49.940;8.450;2023-01-15T08:45:05;4.40;6.70
6244;DHT22;3155;49.940;8.450;2023-01-15T08:47:32;4.40;1.00
6244;DHT22;3155;49.940;8.450;2023-01-15T08:49:58;4.40;1.00
6244;DHT22;3155;49.940;8.450;2023-01-15T08:52:27;4.40;1.00
6244;DHT22;3155;49.940;8.450;2023-01-15T08:54:54;4.40;1.00
6244;DHT22;3155;49.940;8.450;2023-01-15T08:57:21;4.50;1.00
6244;DHT22;3155;49.940;8.450;2023-01-15T08:59:47;4.50;1.00
6244;DHT22;3155;49.940;8.450;2023-01-15T09:02:15;4.50;1.00
6244;DHT22;3155;49.940;8.450;2023-01-15T09:04:43;4.50;1.00
6244;DHT22;3155;49.940;8.450;2023-01-15T09:07:10;4.40;1.00
6244;DHT22;3155;49.940;8.450;2023-01-15T09:09:37;4.50;1.00
6244;DHT22;3155;49.940;8.450;2023-01-15T09:12:04;4.50;1.00
6244;DHT22;3155;49.940;8.450;2023-01-15T09:14:31;4.50;1.00
6244;DHT22;3155;49.940;8.450;2023-01-15T09:17:17;4.50;1.00
6244;DHT22;3155;49.940;8.450;2023-01-15T09:19:45;4.50;1.00
6244;DHT22;3155;49.940;8.450;2023-01-15T09:22:11;4.50;1.00
6244;DHT22;3155;49.940;8.450;2023-01-15T09:24:38;4.50;1.00
6244;DHT22;3155;49.940;8.450;2023-01-15T09:27:05;4.50;1.00
6244;DHT22;3155;49.940;8.450;2023-01-15T09:29:32;4.60;1.00
6244;DHT22;3155;49.940;8.450;2023-01-15T09:31:58;4.60;1.00
6244;DHT22;3155;49.940;8.450;2023-01-15T09:34:26;4.70;1.00
6244;DHT22;3155;49.940;8.450;2023-01-15T09:36:52;4.80;1.00
6244;DHT22;3155;49.940;8.450;2023-01-15T09:39:19;4.80;1.00
6244;DHT22;3155;49.940;8.450;2023-01-15T09:45:09;4.90;1.00
6244;DHT22;3155;49.940;8.450;2023-01-15T09:56:24;4.70;99.90
6244;DHT22;3155;49.940;8.450;2023-01-15T09:58:55;4.70;99.90
6244;DHT22;3155;49.940;8.450;2023-01-15T10:01:28;4.70;99.90
6244;DHT22;3155;49.940;8.450;2023-01-15T10:04:12;4.70;99.90
6244;DHT22;3155;49.940;8.450;2023-01-15T10:06:46;4.70;99.90
6244;DHT22;3155;49.940;8.450;2023-01-15T10:09:21;4.80;99.90
6244;DHT22;3155;49.940;8.450;2023-01-15T10:12:11;4.80;99.90
6244;DHT22;3155;49.940;8.450;2023-01-15T10:17:49;4.80;99.90
6244;DHT22;3155;49.940;8.450;2023-01-15T10:37:22;4.90;99.90
6244;DHT22;3155;49.940;8.450;2023-01-15T10:45:47;5.00;99.90
6244;DHT22;3155;49.940;8.450;2023-01-15T10:48:37;5.00;99.90
6244;DHT22;3155;49.940;8.450;2023-01-15T10:51:44;4.90;99.90
6244;DHT22;3155;49.940;8.450;2023-01-15T11:05:01;4.80;99.90
6244;DHT22;3155;49.940;8.450;2023-01-15T11:07:43;4.90;99.90
6244;DHT22;3155;49.940;8.450;2023-01-15T11:10:31;4.90;99.90
6244;DHT22;3155;49.940;8.450;2023-01-15T11:13:00;4.90;99.90
6244;DHT22;3155;49.940;8.450;2023-01-15T11:15:50;4.90;99.90
6244;DHT22;3155;49.940;8.450;2023-01-15T11:18:39;5.00;99.90
6244;DHT22;3155;49.940;8.450;2023-01-15T11:21:25;5.10;99.90
6244;DHT22;3155;49.940;8.450;2023-01-15T11:23:54;5.00;99.90
6244;DHT22;3155;49.940;8.450;2023-01-15T11:26:25;5.10;99.90
6244;DHT22;3155;49.940;8.450;2023-01-15T11:28:57;5.20;99.90
6244;DHT22;3155;49.940;8.450;2023-01-15T11:31:42;5.30;99.90
6244;DHT22;3155;49.940;8.450;2023-01-15T11:34:20;5.50;99.90
6244;DHT22;3155;49.940;8.450;2023-01-15T11:36:47;5.70;99.90
6244;DHT22;3155;49.940;8.450;2023-01-15T11:39:25;5.70;99.90
6244;DHT22;3155;49.940;8.450;2023-01-15T11:42:04;5.60;99.90
6244;DHT22;3155;49.940;8.450;2023-01-15T11:44:57;5.60;99.90
6244;DHT22;3155;49.940;8.450;2023-01-15T11:47:52;5.80;99.90
6244;DHT22;3155;49.940;8.450;2023-01-15T11:51:01;6.60;99.90
6244;DHT22;3155;49.940;8.450;2023-01-15T11:53:32;7.30;99.90
6244;DHT22;3155;49.940;8.450;2023-01-15T11:56:02;8.40;99.90
6244;DHT22;3155;49.940;8.450;2023-01-15T11:58:40;9.20;99.90
6244;DHT22;3155;49.940;8.450;2023-01-15T12:01:08;9.80;99.90
6244;DHT22;3155;49.940;8.450;2023-01-15T12:03:39;10.20;99.90
6244;DHT22;3155;49.940;8.450;2023-01-15T12:06:08;10.70;99.90
6244;DHT22;3155;49.940;8.450;2023-01-15T12:11:54;10.50;99.90
6244;DHT22;3155;49.940;8.450;2023-01-15T12:17:24;10.60;99.90
6244;DHT22;3155;49.940;8.450;2023-01-15T12:20:38;10.80;99.90
6244;DHT22;3155;49.940;8.450;2023-01-15T12:23:34;10.60;99.90
6244;DHT22;3155;49.940;8.450;2023-01-15T12:31:24;11.60;99.90
6244;DHT22;3155;49.940;8.450;2023-01-15T12:33:57;11.60;99.90
6244;DHT22;3155;49.940;8.450;2023-01-15T12:36:36;11.70;99.90
6244;DHT22;3155;49.940;8.450;2023-01-15T12:39:11;11.80;99.90
6244;DHT22;3155;49.940;8.450;2023-01-15T12:41:42;11.90;99.90
6244;DHT22;3155;49.940;8.450;2023-01-15T12:44:43;11.80;99.90
6244;DHT22;3155;49.940;8.450;2023-01-15T12:56:27;10.90;99.90
6244;DHT22;3155;49.940;8.450;2023-01-15T13:05:03;10.90;99.90
6244;DHT22;3155;49.940;8.450;2023-01-15T13:07:39;11.00;99.90
6244;DHT22;3155;49.940;8.450;2023-01-15T13:10:27;10.20;99.90
6244;DHT22;3155;49.940;8.450;2023-01-15T13:13:16;9.70;99.90
6244;DHT22;3155;49.940;8.450;2023-01-15T13:18:30;8.50;99.90
6244;DHT22;3155;49.940;8.450;2023-01-15T13:21:09;8.00;99.90
6244;DHT22;3155;49.940;8.450;2023-01-15T13:24:00;7.80;99.90
6244;DHT22;3155;49.940;8.450;2023-01-15T13:32:41;7.90;99.90
6244;DHT22;3155;49.940;8.450;2023-01-15T13:37:59;8.50;99.90
6244;DHT22;3155;49.940;8.450;2023-01-15T13:40:31;8.60;99.90
6244;DHT22;3155;49.940;8.450;2023-01-15T13:43:01;8.70;99.90
6244;DHT22;3155;49.940;8.450;2023-01-15T13:45:42;8.80;99.90
6244;DHT22;3155;49.940;8.450;2023-01-15T13:48:16;8.70;99.90
6244;DHT22;3155;49.940;8.450;2023-01-15T13:50:58;8.60;99.90
6244;DHT22;3155;49.940;8.450;2023-01-15T13:53:35;8.50;99.90
6244;DHT22;3155;49.940;8.450;2023-01-15T13:56:10;8.20;99.90
6244;DHT22;3155;49.940;8.450;2023-01-15T13:59:01;8.20;99.90
6244;DHT22;3155;49.940;8.450;2023-01-15T14:11:57;8.10;99.90
6244;DHT22;3155;49.940;8.450;2023-01-15T14:17:48;7.90;99.90
6244;DHT22;3155;49.940;8.450;2023-01-15T14:20:37;7.70;99.90
6244;DHT22;3155;49.940;8.450;2023-01-15T14:26:14;7.10;99.90
6244;DHT22;3155;49.940;8.450;2023-01-15T14:29:10;6.90;99.90
6244;DHT22;3155;49.940;8.450;2023-01-15T14:31:49;6.90;99.90
6244;DHT22;3155;49.940;8.450;2023-01-15T14:34:25;6.90;99.90
6244;DHT22;3155;49.940;8.450;2023-01-15T14:36:57;6.90;99.90
6244;DHT22;3155;49.940;8.450;2023-01-15T14:42:13;6.90;99.90
6244;DHT22;3155;49.940;8.450;2023-01-15T14:47:59;6.90;99.90
6244;DHT22;3155;49.940;8.450;2023-01-15T14:50:38;6.80;99.90
6244;DHT22;3155;49.940;8.450;2023-01-15T14:55:31;6.80;99.90
6244;DHT22;3155;49.940;8.450;2023-01-15T14:58:04;6.90;99.90
6244;DHT22;3155;49.940;8.450;2023-01-15T15:00:38;7.10;99.90
6244;DHT22;3155;49.940;8.450;2023-01-15T15:03:32;7.20;99.90
6244;DHT22;3155;49.940;8.450;2023-01-15T15:06:03;7.20;99.90
6244;DHT22;3155;49.940;8.450;2023-01-15T15:08:32;7.30;99.90
6244;DHT22;3155;49.940;8.450;2023-01-15T15:11:01;7.30;99.90
6244;DHT22;3155;49.940;8.450;2023-01-15T15:13:55;7.30;99.90
6244;DHT22;3155;49.940;8.450;2023-01-15T15:16:27;7.30;99.90
6244;DHT22;3155;49.940;8.450;2023-01-15T15:19:06;7.20;99.90
6244;DHT22;3155;49.940;8.450;2023-01-15T15:21:40;7.00;99.90
6244;DHT22;3155;49.940;8.450;2023-01-15T15:26:51;6.60;99.90
6244;DHT22;3155;49.940;8.450;2023-01-15T15:29:19;6.60;99.90
6244;DHT22;3155;49.940;8.450;2023-01-15T15:31:56;6.50;99.90
6244;DHT22;3155;49.940;8.450;2023-01-15T15:34:26;6.50;99.90
6244;DHT22;3155;49.940;8.450;2023-01-15T15:36:56;6.40;99.90
6244;DHT22;3155;49.940;8.450;2023-01-15T15:39:43;6.40;99.90
6244;DHT22;3155;49.940;8.450;2023-01-15T15:45:24;6.20;99.90
6244;DHT22;3155;49.940;8.450;2023-01-15T15:48:20;6.20;99.90
6244;DHT22;3155;49.940;8.450;2023-01-15T15:51:31;6.10;99.90
6244;DHT22;3155;49.940;8.450;2023-01-15T15:56:55;5.90;99.90
6244;DHT22;3155;49.940;8.450;2023-01-15T15:59:31;5.90;99.90
6244;DHT22;3155;49.940;8.450;2023-01-15T16:02:33;5.80;99.90
6244;DHT22;3155;49.940;8.450;2023-01-15T16:05:20;5.70;99.90
6244;DHT22;3155;49.940;8.450;2023-01-15T16:07:48;5.70;99.90
6244;DHT22;3155;49.940;8.450;2023-01-15T16:12:53;5.60;99.90
6244;DHT22;3155;49.940;8.450;2023-01-15T16:15:27;5.60;99.90
6244;DHT22;3155;49.940;8.450;2023-01-15T16:17:56;5.60;99.90
6244;DHT22;3155;49.940;8.450;2023-01-15T16:20:24;5.50;99.90
6244;DHT22;3155;49.940;8.450;2023-01-15T16:23:00;5.40;99.90
6244;DHT22;3155;49.940;8.450;2023-01-15T16:25:36;5.20;99.90
6244;DHT22;3155;49.940;8.450;2023-01-15T16:28:04;5.00;99.90
6244;DHT22;3155;49.940;8.450;2023-01-15T16:30:31;4.90;99.90
6244;DHT22;3155;49.940;8.450;2023-01-15T16:33:06;4.90;99.90
6244;DHT22;3155;49.940;8.450;2023-01-15T16:35:33;4.80;99.90
6244;DHT22;3155;49.940;8.450;2023-01-15T16:38:03;4.70;99.90
6244;DHT22;3155;49.940;8.450;2023-01-15T16:40:33;4.70;99.90
6244;DHT22;3155;49.940;8.450;2023-01-15T16:43:09;4.70;99.90
6244;DHT22;3155;49.940;8.450;2023-01-15T16:48:33;4.60;99.90
6244;DHT22;3155;49.940;8.450;2023-01-15T16:54:01;4.50;99.90
6244;DHT22;3155;49.940;8.450;2023-01-15T16:59:17;4.30;99.90
6244;DHT22;3155;49.940;8.450;2023-01-15T17:01:45;4.30;99.90
6244;DHT22;3155;49.940;8.450;2023-01-15T17:04:37;4.30;99.90
6244;DHT22;3155;49.940;8.450;2023-01-15T17:07:26;4.20;99.90
6244;DHT22;3155;49.940;8.450;2023-01-15T17:09:55;4.20;99.90
6244;DHT22;3155;49.940;8.450;2023-01-15T17:14:52;4.10;99.90
6244;DHT22;3155;49.940;8.450;2023-01-15T17:19:49;4.10;99.90
6244;DHT22;3155;49.940;8.450;2023-01-15T17:24:51;4.10;99.90
6244;DHT22;3155;49.940;8.450;2023-01-15T17:27:19;4.10;99.90
6244;DHT22;3155;49.940;8.450;2023-01-15T17:29:46;4.20;99.90
6244;DHT22;3155;49.940;8.450;2023-01-15T17:32:33;4.20;99.90
6244;DHT22;3155;49.940;8.450;2023-01-15T17:35:08;4.10;99.90
6244;DHT22;3155;49.940;8.450;2023-01-15T17:37:42;4.10;99.90
6244;DHT22;3155;49.940;8.450;2023-01-15T17:40:10;4.00;99.90
6244;DHT22;3155;49.940;8.450;2023-01-15T17:42:37;3.90;99.90
6244;DHT22;3155;49.940;8.450;2023-01-15T17:45:21;3.80;99.90
6244;DHT22;3155;49.940;8.450;2023-01-15T17:47:49;3.70;99.90
6244;DHT22;3155;49.940;8.450;2023-01-15T17:50:16;3.70;99.90
6244;DHT22;3155;49.940;8.450;2023-01-15T17:52:45;3.80;99.90
6244;DHT22;3155;49.940;8.450;2023-01-15T17:55:20;3.90;99.90
6244;DHT22;3155;49.940;8.450;2023-01-15T17:58:12;4.00;99.90
6244;DHT22;3155;49.940;8.450;2023-01-15T18:01:09;4.10;99.90
6244;DHT22;3155;49.940;8.450;2023-01-15T18:03:57;4.10;99.90
6244;DHT22;3155;49.940;8.450;2023-01-15T18:06:47;4.10;99.90
6244;DHT22;3155;49.940;8.450;2023-01-15T18:09:16;4.20;99.90
6244;DHT22;3155;49.940;8.450;2023-01-15T18:11:44;4.30;99.90
6244;DHT22;3155;49.940;8.450;2023-01-15T18:14:11;4.30;99.90
6244;DHT22;3155;49.940;8.450;2023-01-15T18:16:38;4.30;99.90
6244;DHT22;3155;49.940;8.450;2023-01-15T18:19:05;4.40;99.90
6244;DHT22;3155;49.940;8.450;2023-01-15T18:21:36;4.50;99.90
6244;DHT22;3155;49.940;8.450;2023-01-15T18:24:02;4.60;99.90
6244;DHT22;3155;49.940;8.450;2023-01-15T18:26:29;4.70;99.90
6244;DHT22;3155;49.940;8.450;2023-01-15T18:28:56;4.70;99.90
6244;DHT22;3155;49.940;8.450;2023-01-15T18:31:23;4.70;99.90
6244;DHT22;3155;49.940;8.450;2023-01-15T18:33:49;4.70;99.90
6244;DHT22;3155;49.940;8.450;2023-01-15T18:36:16;4.70;99.90
6244;DHT22;3155;49.940;8.450;2023-01-15T18:38:43;4.70;99.90
6244;DHT22;3155;49.940;8.450;2023-01-15T18:41:13;4.70;99.90
6244;DHT22;3155;49.940;8.450;2023-01-15T18:44:00;4.60;99.90
6244;DHT22;3155;49.940;8.450;2023-01-15T18:46:46;4.60;99.90
6244;DHT22;3155;49.940;8.450;2023-01-15T18:49:15;4.60;99.90
6244;DHT22;3155;49.940;8.450;2023-01-15T18:51:42;4.60;99.90
6244;DHT22;3155;49.940;8.450;2023-01-15T18:54:09;4.60;99.90
6244;DHT22;3155;49.940;8.450;2023-01-15T18:56:36;4.60;99.90
6244;DHT22;3155;49.940;8.450;2023-01-15T18:59:16;4.60;99.90
6244;DHT22;3155;49.940;8.450;2023-01-15T19:01:43;4.70;99.90
6244;DHT22;3155;49.940;8.450;2023-01-15T19:04:10;4.70;99.90
6244;DHT22;3155;49.940;8.450;2023-01-15T19:06:37;4.70;99.90
6244;DHT22;3155;49.940;8.450;2023-01-15T19:09:05;4.70;99.90
6244;DHT22;3155;49.940;8.450;2023-01-15T19:11:32;4.70;99.90
6244;DHT22;3155;49.940;8.450;2023-01-15T19:14:01;4.70;99.90
6244;DHT22;3155;49.940;8.450;2023-01-15T19:16:47;4.70;99.90
6244;DHT22;3155;49.940;8.450;2023-01-15T19:19:32;4.80;99.90
6244;DHT22;3155;49.940;8.450;2023-01-15T19:21:59;4.80;99.90
6244;DHT22;3155;49.940;8.450;2023-01-15T19:24:45;4.80;99.90
6244;DHT22;3155;49.940;8.450;2023-01-15T19:27:20;4.80;99.90
6244;DHT22;3155;49.940;8.450;2023-01-15T19:29:47;4.80;99.90